sensor_id;sensor_type;location;lat;lon;timestamp;pressure;altitude;pressure_sealevel;temperature;humidity
6136;BME280;24008;42.664;23.372;2023-05-19T00:00:37;94929.97;;;11.07;100.00
6136;BME280;24008;42.664;23.372;2023-05-19T00:03:04;94940.19;;;11.07;100.00
6136;BME280;24008;42.664;23.372;2023-05-19T00:05:34;94941.94;;;11.07;100.00
6136;BME280;24008;42.664;23.372;2023-05-19T00:08:10;94910.34;;;10.89;100.00
6136;BME280;24008;42.664;23.372;2023-05-19T00:10:38;94936.97;;;11.05;100.00
6136;BME280;24008;42.664;23.372;2023-05-19T00:13:06;94929.44;;;11.04;100.00
6136;BME280;24008;42.664;23.372;2023-05-19T00:15:34;94901.50;;;10.83;100.00
6136;BME280;24008;42.664;23.372;2023-05-19T00:18:01;94934.53;;;11.04;100.00
6136;BME280;24008;42.664;23.372;2023-05-19T00:20:27;94925.41;;;11.01;100.00
6136;BME280;24008;42.664;23.372;2023-05-19T00:22:54;94855.94;;;10.59;100.00
6136;BME280;24008;42.664;23.372;2023-05-19T00:25:21;94928.25;;;10.98;100.00
6136;BME280;24008;42.664;23.372;2023-05-19T00:27:48;94946.28;;;10.97;100.00
6136;BME280;24008;42.664;23.372;2023-05-19T00:30:16;94904.44;;;10.78;100.00
6136;BME280;24008;42.664;23.372;2023-05-19T00:32:43;94899.06;;;10.81;100.00
6136;BME280;24008;42.664;23.372;2023-05-19T00:35:10;94921.38;;;10.99;100.00
6136;BME280;24008;42.664;23.372;2023-05-19T00:37:37;94859.03;;;10.53;100.00
6136;BME280;24008;42.664;23.372;2023-05-19T00:40:05;94926.78;;;10.96;100.00
6136;BME280;24008;42.664;23.372;2023-05-19T00:42:32;94796.28;;;10.22;100.00
6136;BME280;24008;42.664;23.372;2023-05-19T00:44:59;94911.28;;;10.97;100.00
6136;BME280;24008;42.664;23.372;2023-05-19T00:47:27;94913.97;;;10.96;100.00
6136;BME280;24008;42.664;23.372;2023-05-19T00:49:54;94912.50;;;10.93;100.00
6136;BME280;24008;42.664;23.372;2023-05-19T00:52:21;94909.13;;;10.93;100.00
6136;BME280;24008;42.664;23.372;2023-05-19T00:54:48;94913.31;;;10.94;100.00
6136;BME280;24008;42.664;23.372;2023-05-19T00:57:16;94893.19;;;10.71;100.00
6136;BME280;24008;42.664;23.372;2023-05-19T00:59:43;94913.84;;;10.88;100.00
6136;BME280;24008;42.664;23.372;2023-05-19T01:02:10;94908.72;;;10.88;100.00
6136;BME280;24008;42.664;23.372;2023-05-19T01:04:39;94918.97;;;10.88;100.00
6136;BME280;24008;42.664;23.372;2023-05-19T01:07:08;94909.03;;;10.85;100.00
6136;BME280;24008;42.664;23.372;2023-05-19T01:09:35;94888.59;;;10.65;100.00
6136;BME280;24008;42.664;23.372;2023-05-19T01:12:02;94875.03;;;10.55;100.00
6136;BME280;24008;42.664;23.372;2023-05-19T01:14:29;94915.91;;;10.74;100.00
6136;BME280;24008;42.664;23.372;2023-05-19T01:17:00;94916.56;;;10.67;100.00
6136;BME280;24008;42.664;23.372;2023-05-19T01:19:55;94917.94;;;10.61;100.00
6136;BME280;24008;42.664;23.372;2023-05-19T01:23:02;94900.88;;;10.42;100.00
6136;BME280;24008;42.664;23.372;2023-05-19T01:29:02;94912.03;;;10.41;100.00
6136;BME280;24008;42.664;23.372;2023-05-19T01:31:35;94890.41;;;10.26;100.00
6136;BME280;24008;42.664;23.372;2023-05-19T01:34:03;94929.53;;;10.36;100.00
6136;BME280;24008;42.664;23.372;2023-05-19T01:36:32;94919.56;;;10.33;100.00
6136;BME280;24008;42.664;23.372;2023-05-19T01:39:00;94919.03;;;10.30;100.00
6136;BME280;24008;42.664;23.372;2023-05-19T01:41:28;94921.84;;;10.27;100.00
6136;BME280;24008;42.664;23.372;2023-05-19T01:43:57;94909.84;;;10.18;100.00
6136;BME280;24008;42.664;23.372;2023-05-19T01:46:24;94919.56;;;10.24;100.00
6136;BME280;24008;42.664;23.372;2023-05-19T01:48:52;94925.63;;;10.23;100.00
6136;BME280;24008;42.664;23.372;2023-05-19T01:51:20;94926.56;;;10.22;100.00
6136;BME280;24008;42.664;23.372;2023-05-19T01:53:46;94859.28;;;9.83;100.00
6136;BME280;24008;42.664;23.372;2023-05-19T01:56:16;94921.72;;;10.19;100.00
6136;BME280;24008;42.664;23.372;2023-05-19T01:58:52;94926.69;;;10.20;100.00
6136;BME280;24008;42.664;23.372;2023-05-19T02:01:29;94864.66;;;9.80;100.00
6136;BME280;24008;42.664;23.372;2023-05-19T02:04:14;94930.97;;;10.20;100.00
6136;BME280;24008;42.664;23.372;2023-05-19T02:06:48;94904.47;;;10.01;100.00
6136;BME280;24008;42.664;23.372;2023-05-19T02:09:22;94930.97;;;10.20;100.00
6136;BME280;24008;42.664;23.372;2023-05-19T02:11:54;94869.50;;;9.83;100.00
6136;BME280;24008;42.664;23.372;2023-05-19T02:14:29;94915.22;;;10.05;100.00
6136;BME280;24008;42.664;23.372;2023-05-19T02:16:56;94932.56;;;10.11;100.00
6136;BME280;24008;42.664;23.372;2023-05-19T02:19:28;94931.09;;;10.08;100.00
6136;BME280;24008;42.664;23.372;2023-05-19T02:21:56;94898.81;;;9.88;100.00
6136;BME280;24008;42.664;23.372;2023-05-19T02:24:23;94931.34;;;10.05;100.00
6136;BME280;24008;42.664;23.372;2023-05-19T02:26:50;94909.28;;;9.95;100.00
6136;BME280;24008;42.664;23.372;2023-05-19T02:29:17;94926.78;;;9.99;100.00
6136;BME280;24008;42.664;23.372;2023-05-19T02:31:44;94938.88;;;9.97;100.00
6136;BME280;24008;42.664;23.372;2023-05-19T02:34:11;94941.53;;;9.96;100.00
6136;BME280;24008;42.664;23.372;2023-05-19T02:36:40;94882.47;;;9.51;100.00
6136;BME280;24008;42.664;23.372;2023-05-19T02:39:08;94906.03;;;9.73;100.00
6136;BME280;24008;42.664;23.372;2023-05-19T02:41:35;94932.94;;;9.87;100.00
6136;BME280;24008;42.664;23.372;2023-05-19T02:44:02;94929.69;;;9.85;100.00
6136;BME280;24008;42.664;23.372;2023-05-19T02:46:28;94933.06;;;9.86;100.00
6136;BME280;24008;42.664;23.372;2023-05-19T02:48:55;94912.47;;;9.68;100.00
6136;BME280;24008;42.664;23.372;2023-05-19T02:51:22;94936.69;;;9.83;100.00
6136;BME280;24008;42.664;23.372;2023-05-19T02:53:50;94942.72;;;9.82;100.00
6136;BME280;24008;42.664;23.372;2023-05-19T02:56:17;94874.66;;;9.43;100.00
6136;BME280;24008;42.664;23.372;2023-05-19T02:58:43;94933.69;;;9.78;100.00
6136;BME280;24008;42.664;23.372;2023-05-19T03:01:10;94937.22;;;9.77;100.00
6136;BME280;24008;42.664;23.372;2023-05-19T03:03:37;94937.22;;;9.77;100.00
6136;BME280;24008;42.664;23.372;2023-05-19T03:06:04;94914.88;;;9.60;100.00
6136;BME280;24008;42.664;23.372;2023-05-19T03:08:33;94939.34;;;9.72;100.00
6136;BME280;24008;42.664;23.372;2023-05-19T03:11:01;94916.97;;;9.55;100.00
6136;BME280;24008;42.664;23.372;2023-05-19T03:13:27;94860.91;;;9.24;100.00
6136;BME280;24008;42.664;23.372;2023-05-19T03:15:54;94947.94;;;9.81;100.00
6136;BME280;24008;42.664;23.372;2023-05-19T03:18:22;94949.81;;;9.79;100.00
6136;BME280;24008;42.664;23.372;2023-05-19T03:20:50;94958.97;;;9.81;100.00
6136;BME280;24008;42.664;23.372;2023-05-19T03:23:18;94951.19;;;9.83;100.00
6136;BME280;24008;42.664;23.372;2023-05-19T03:25:45;94920.78;;;9.70;100.00
6136;BME280;24008;42.664;23.372;2023-05-19T03:28:13;94949.47;;;9.93;100.00
6136;BME280;24008;42.664;23.372;2023-05-19T03:30:40;94955.00;;;9.98;100.00
6136;BME280;24008;42.664;23.372;2023-05-19T03:33:07;94918.13;;;9.81;100.00
6136;BME280;24008;42.664;23.372;2023-05-19T03:35:33;94948.41;;;10.05;100.00
6136;BME280;24008;42.664;23.372;2023-05-19T03:38:00;94946.41;;;10.08;100.00
6136;BME280;24008;42.664;23.372;2023-05-19T03:40:27;94949.38;;;10.14;100.00
6136;BME280;24008;42.664;23.372;2023-05-19T03:42:54;94956.53;;;10.20;100.00
6136;BME280;24008;42.664;23.372;2023-05-19T03:45:22;94951.03;;;10.24;100.00
6136;BME280;24008;42.664;23.372;2023-05-19T03:47:49;94928.28;;;10.11;100.00
6136;BME280;24008;42.664;23.372;2023-05-19T03:50:16;94958.44;;;10.37;100.00
6136;BME280;24008;42.664;23.372;2023-05-19T03:52:42;94899.63;;;9.98;100.00
6136;BME280;24008;42.664;23.372;2023-05-19T03:55:11;94961.66;;;10.49;100.00
6136;BME280;24008;42.664;23.372;2023-05-19T03:57:39;94809.97;;;9.63;100.00
6136;BME280;24008;42.664;23.372;2023-05-19T04:00:06;94961.38;;;10.71;100.00
6136;BME280;24008;42.664;23.372;2023-05-19T04:02:36;94964.19;;;10.87;100.00
6136;BME280;24008;42.664;23.372;2023-05-19T04:05:04;94965.50;;;11.01;100.00
6136;BME280;24008;42.664;23.372;2023-05-19T04:07:31;94965.75;;;11.17;100.00
6136;BME280;24008;42.664;23.372;2023-05-19T04:09:58;94961.50;;;11.35;100.00
6136;BME280;24008;42.664;23.372;2023-05-19T04:12:25;94964.97;;;11.53;100.00
6136;BME280;24008;42.664;23.372;2023-05-19T04:14:51;94941.94;;;11.53;100.00
6136;BME280;24008;42.664;23.372;2023-05-19T04:17:18;94967.94;;;11.86;100.00
6136;BME280;24008;42.664;23.372;2023-05-19T04:19:47;94942.91;;;11.80;100.00
6136;BME280;24008;42.664;23.372;2023-05-19T04:22:13;94982.06;;;12.17;100.00
6136;BME280;24008;42.664;23.372;2023-05-19T04:24:40;94981.13;;;12.36;100.00
6136;BME280;24008;42.664;23.372;2023-05-19T04:27:07;94935.28;;;12.15;100.00
6136;BME280;24008;42.664;23.372;2023-05-19T04:29:36;94982.22;;;12.69;100.00
6136;BME280;24008;42.664;23.372;2023-05-19T04:32:03;94924.53;;;12.65;100.00
6136;BME280;24008;42.664;23.372;2023-05-19T04:34:32;94981.91;;;13.85;97.66
6136;BME280;24008;42.664;23.372;2023-05-19T04:37:01;94907.31;;;14.19;90.66
6136;BME280;24008;42.664;23.372;2023-05-19T04:39:28;94935.28;;;15.28;84.53
6136;BME280;24008;42.664;23.372;2023-05-19T04:41:55;94999.38;;;16.33;79.63
6136;BME280;24008;42.664;23.372;2023-05-19T04:44:22;94968.50;;;16.93;76.04
6136;BME280;24008;42.664;23.372;2023-05-19T04:46:49;94975.94;;;17.49;72.52
6136;BME280;24008;42.664;23.372;2023-05-19T04:49:18;94995.31;;;17.97;69.96
6136;BME280;24008;42.664;23.372;2023-05-19T04:51:48;94939.75;;;18.08;66.61
6136;BME280;24008;42.664;23.372;2023-05-19T04:54:17;94999.19;;;18.73;65.13
6136;BME280;24008;42.664;23.372;2023-05-19T04:56:44;94934.84;;;18.70;62.97
6136;BME280;24008;42.664;23.372;2023-05-19T04:59:11;94955.00;;;18.75;62.40
6136;BME280;24008;42.664;23.372;2023-05-19T05:01:37;94926.88;;;18.93;61.66
6136;BME280;24008;42.664;23.372;2023-05-19T05:04:05;95000.59;;;19.39;60.28
6136;BME280;24008;42.664;23.372;2023-05-19T05:06:32;95001.59;;;18.75;61.85
6136;BME280;24008;42.664;23.372;2023-05-19T05:08:59;94950.88;;;18.59;62.67
6136;BME280;24008;42.664;23.372;2023-05-19T05:11:30;94956.09;;;18.87;60.52
6136;BME280;24008;42.664;23.372;2023-05-19T05:13:57;94997.88;;;19.26;60.68
6136;BME280;24008;42.664;23.372;2023-05-19T05:16:25;95000.81;;;19.66;59.65
6136;BME280;24008;42.664;23.372;2023-05-19T05:18:52;94991.53;;;19.57;59.37
6136;BME280;24008;42.664;23.372;2023-05-19T05:21:19;94996.63;;;19.71;59.26
6136;BME280;24008;42.664;23.372;2023-05-19T05:23:48;94994.38;;;19.96;58.24
6136;BME280;24008;42.664;23.372;2023-05-19T05:26:16;94985.25;;;20.07;56.95
6136;BME280;24008;42.664;23.372;2023-05-19T05:28:45;95000.66;;;20.56;56.31
6136;BME280;24008;42.664;23.372;2023-05-19T05:31:12;95003.53;;;20.88;54.87
6136;BME280;24008;42.664;23.372;2023-05-19T05:33:39;95007.53;;;20.90;55.73
6136;BME280;24008;42.664;23.372;2023-05-19T05:36:07;94983.34;;;20.83;54.26
6136;BME280;24008;42.664;23.372;2023-05-19T05:38:34;95008.41;;;21.37;53.22
6136;BME280;24008;42.664;23.372;2023-05-19T05:41:00;94998.75;;;21.83;52.48
6136;BME280;24008;42.664;23.372;2023-05-19T05:43:28;95005.91;;;22.14;51.30
6136;BME280;24008;42.664;23.372;2023-05-19T05:45:56;94896.63;;;21.88;50.30
6136;BME280;24008;42.664;23.372;2023-05-19T05:48:24;94954.72;;;22.40;50.29
6136;BME280;24008;42.664;23.372;2023-05-19T05:50:51;94998.78;;;22.86;49.82
6136;BME280;24008;42.664;23.372;2023-05-19T05:53:19;95004.44;;;23.14;49.02
6136;BME280;24008;42.664;23.372;2023-05-19T05:55:47;95005.97;;;23.47;48.17
6136;BME280;24008;42.664;23.372;2023-05-19T05:58:14;95008.66;;;23.40;48.85
6136;BME280;24008;42.664;23.372;2023-05-19T06:00:41;94940.47;;;23.12;47.00
6136;BME280;24008;42.664;23.372;2023-05-19T06:03:10;95003.91;;;23.55;47.44
6136;BME280;24008;42.664;23.372;2023-05-19T06:05:39;95005.56;;;23.93;46.21
6136;BME280;24008;42.664;23.372;2023-05-19T06:08:05;95030.59;;;23.82;46.88
6136;BME280;24008;42.664;23.372;2023-05-19T06:10:32;95030.34;;;23.65;47.07
6136;BME280;24008;42.664;23.372;2023-05-19T06:12:59;94951.16;;;23.04;46.75
6136;BME280;24008;42.664;23.372;2023-05-19T06:15:26;94914.31;;;22.62;47.54
6136;BME280;24008;42.664;23.372;2023-05-19T06:17:53;94993.09;;;23.02;47.38
6136;BME280;24008;42.664;23.372;2023-05-19T06:20:21;95020.44;;;22.86;46.54
6136;BME280;24008;42.664;23.372;2023-05-19T06:22:49;95037.59;;;23.01;47.63
6136;BME280;24008;42.664;23.372;2023-05-19T06:25:16;95037.13;;;23.17;47.27
6136;BME280;24008;42.664;23.372;2023-05-19T06:27:45;94986.16;;;22.89;46.38
6136;BME280;24008;42.664;23.372;2023-05-19T06:30:12;95047.19;;;23.38;46.52
6136;BME280;24008;42.664;23.372;2023-05-19T06:32:39;95007.91;;;23.58;45.70
6136;BME280;24008;42.664;23.372;2023-05-19T06:35:07;95018.50;;;23.88;46.49
6136;BME280;24008;42.664;23.372;2023-05-19T06:37:35;94953.06;;;23.83;45.53
6136;BME280;24008;42.664;23.372;2023-05-19T06:40:02;94992.81;;;23.85;44.80
6136;BME280;24008;42.664;23.372;2023-05-19T06:42:30;95030.09;;;24.65;44.60
6136;BME280;24008;42.664;23.372;2023-05-19T06:44:57;95005.09;;;24.87;42.91
6136;BME280;24008;42.664;23.372;2023-05-19T06:47:24;95034.47;;;24.53;43.70
6136;BME280;24008;42.664;23.372;2023-05-19T06:49:51;94916.88;;;24.04;42.93
6136;BME280;24008;42.664;23.372;2023-05-19T06:52:19;94990.91;;;24.35;41.82
6136;BME280;24008;42.664;23.372;2023-05-19T06:54:48;95036.88;;;24.72;41.25
6136;BME280;24008;42.664;23.372;2023-05-19T06:57:15;95023.47;;;24.99;41.98
6136;BME280;24008;42.664;23.372;2023-05-19T06:59:42;95040.44;;;25.08;43.33
6136;BME280;24008;42.664;23.372;2023-05-19T07:02:11;95048.06;;;25.09;41.17
6136;BME280;24008;42.664;23.372;2023-05-19T07:04:40;95058.66;;;25.56;41.21
6136;BME280;24008;42.664;23.372;2023-05-19T07:07:15;95045.59;;;25.68;40.98
6136;BME280;24008;42.664;23.372;2023-05-19T07:10:06;94996.88;;;25.78;38.84
6136;BME280;24008;42.664;23.372;2023-05-19T07:12:33;94920.25;;;24.71;40.80
6136;BME280;24008;42.664;23.372;2023-05-19T07:15:03;95048.56;;;25.83;39.93
6136;BME280;24008;42.664;23.372;2023-05-19T07:17:31;94952.31;;;25.08;37.22
6136;BME280;24008;42.664;23.372;2023-05-19T07:20:05;95059.38;;;26.10;38.40
6136;BME280;24008;42.664;23.372;2023-05-19T07:22:35;95037.88;;;26.31;38.25
6136;BME280;24008;42.664;23.372;2023-05-19T07:25:06;95063.38;;;26.36;37.17
6136;BME280;24008;42.664;23.372;2023-05-19T07:27:33;95027.72;;;25.76;38.92
6136;BME280;24008;42.664;23.372;2023-05-19T07:30:00;95004.69;;;25.02;40.83
6136;BME280;24008;42.664;23.372;2023-05-19T07:32:27;95016.66;;;25.63;39.88
6136;BME280;24008;42.664;23.372;2023-05-19T07:34:53;94982.94;;;25.43;40.13
6136;BME280;24008;42.664;23.372;2023-05-19T07:37:20;95064.13;;;25.25;39.62
6136;BME280;24008;42.664;23.372;2023-05-19T07:39:47;94970.91;;;24.40;39.45
6136;BME280;24008;42.664;23.372;2023-05-19T07:42:15;95060.06;;;25.70;39.96
6136;BME280;24008;42.664;23.372;2023-05-19T07:44:45;95053.59;;;26.31;37.69
6136;BME280;24008;42.664;23.372;2023-05-19T07:47:12;95053.69;;;26.36;37.36
6136;BME280;24008;42.664;23.372;2023-05-19T07:49:38;94964.88;;;25.76;39.97
6136;BME280;24008;42.664;23.372;2023-05-19T07:52:06;95051.13;;;26.65;36.82
6136;BME280;24008;42.664;23.372;2023-05-19T07:54:32;95022.19;;;27.16;35.43
6136;BME280;24008;42.664;23.372;2023-05-19T07:56:59;95051.28;;;27.60;34.79
6136;BME280;24008;42.664;23.372;2023-05-19T07:59:27;95027.88;;;26.85;36.09
6136;BME280;24008;42.664;23.372;2023-05-19T08:01:54;94937.31;;;25.86;37.94
6136;BME280;24008;42.664;23.372;2023-05-19T08:04:21;94959.63;;;25.30;39.24
6136;BME280;24008;42.664;23.372;2023-05-19T08:06:48;95048.59;;;25.00;39.94
6136;BME280;24008;42.664;23.372;2023-05-19T08:09:16;95052.97;;;25.18;39.31
6136;BME280;24008;42.664;23.372;2023-05-19T08:11:43;94909.19;;;24.58;39.09
6136;BME280;24008;42.664;23.372;2023-05-19T08:14:11;95050.63;;;25.28;41.99
6136;BME280;24008;42.664;23.372;2023-05-19T08:16:39;95056.53;;;25.76;40.69
6136;BME280;24008;42.664;23.372;2023-05-19T08:19:07;95053.91;;;26.00;41.42
6136;BME280;24008;42.664;23.372;2023-05-19T08:21:34;95047.78;;;26.29;39.80
6136;BME280;24008;42.664;23.372;2023-05-19T08:24:01;95055.63;;;26.29;38.76
6136;BME280;24008;42.664;23.372;2023-05-19T08:26:28;95047.78;;;26.06;36.69
6136;BME280;24008;42.664;23.372;2023-05-19T08:28:55;95032.69;;;25.55;37.72
6136;BME280;24008;42.664;23.372;2023-05-19T08:31:22;95041.53;;;25.42;38.82
6136;BME280;24008;42.664;23.372;2023-05-19T08:33:50;95057.03;;;25.55;38.71
6136;BME280;24008;42.664;23.372;2023-05-19T08:36:17;95050.16;;;26.31;39.11
6136;BME280;24008;42.664;23.372;2023-05-19T08:38:44;95044.00;;;26.77;36.87
6136;BME280;24008;42.664;23.372;2023-05-19T08:41:11;95053.13;;;26.74;36.26
6136;BME280;24008;42.664;23.372;2023-05-19T08:43:37;95056.66;;;26.80;36.63
6136;BME280;24008;42.664;23.372;2023-05-19T08:46:04;95005.63;;;26.59;36.30
6136;BME280;24008;42.664;23.372;2023-05-19T08:48:34;94888.59;;;25.84;37.10
6136;BME280;24008;42.664;23.372;2023-05-19T08:51:12;95043.50;;;27.20;36.83
6136;BME280;24008;42.664;23.372;2023-05-19T08:53:41;95052.91;;;27.33;35.02
6136;BME280;24008;42.664;23.372;2023-05-19T08:56:16;95047.44;;;27.06;36.66
6136;BME280;24008;42.664;23.372;2023-05-19T08:58:44;95038.03;;;26.93;35.72
6136;BME280;24008;42.664;23.372;2023-05-19T09:01:13;95052.84;;;26.99;35.76
6136;BME280;24008;42.664;23.372;2023-05-19T09:03:42;95048.47;;;27.50;35.99
6136;BME280;24008;42.664;23.372;2023-05-19T09:06:10;95038.78;;;27.05;35.99
6136;BME280;24008;42.664;23.372;2023-05-19T09:08:38;95015.53;;;27.25;35.29
6136;BME280;24008;42.664;23.372;2023-05-19T09:11:05;95019.38;;;26.78;36.57
6136;BME280;24008;42.664;23.372;2023-05-19T09:13:32;95028.88;;;26.67;37.98
6136;BME280;24008;42.664;23.372;2023-05-19T09:15:59;95001.00;;;27.06;36.04
6136;BME280;24008;42.664;23.372;2023-05-19T09:18:26;95013.50;;;26.99;35.40
6136;BME280;24008;42.664;23.372;2023-05-19T09:20:56;94996.66;;;27.12;35.84
6136;BME280;24008;42.664;23.372;2023-05-19T09:23:28;95026.44;;;27.06;38.80
6136;BME280;24008;42.664;23.372;2023-05-19T09:25:56;94985.91;;;26.97;37.73
6136;BME280;24008;42.664;23.372;2023-05-19T09:28:24;94966.59;;;26.74;36.77
6136;BME280;24008;42.664;23.372;2023-05-19T09:31:01;95002.50;;;26.34;38.03
6136;BME280;24008;42.664;23.372;2023-05-19T09:33:28;95028.94;;;26.44;37.15
6136;BME280;24008;42.664;23.372;2023-05-19T09:35:58;94944.25;;;25.92;37.65
6136;BME280;24008;42.664;23.372;2023-05-19T09:38:27;94963.81;;;26.12;38.52
6136;BME280;24008;42.664;23.372;2023-05-19T09:40:55;95016.84;;;26.54;40.61
6136;BME280;24008;42.664;23.372;2023-05-19T09:43:22;95017.84;;;26.94;40.92
6136;BME280;24008;42.664;23.372;2023-05-19T09:45:54;94997.22;;;27.14;37.59
6136;BME280;24008;42.664;23.372;2023-05-19T09:48:20;94946.91;;;26.88;38.04
6136;BME280;24008;42.664;23.372;2023-05-19T09:50:47;95016.50;;;27.86;34.61
6136;BME280;24008;42.664;23.372;2023-05-19T09:53:16;94998.50;;;26.54;35.05
6136;BME280;24008;42.664;23.372;2023-05-19T09:55:44;94964.44;;;26.43;34.84
6136;BME280;24008;42.664;23.372;2023-05-19T09:58:15;95011.22;;;26.91;34.98
6136;BME280;24008;42.664;23.372;2023-05-19T10:00:42;94980.88;;;26.95;34.42
6136;BME280;24008;42.664;23.372;2023-05-19T10:03:09;94833.69;;;26.30;33.74
6136;BME280;24008;42.664;23.372;2023-05-19T10:05:37;94962.56;;;27.29;34.80
6136;BME280;24008;42.664;23.372;2023-05-19T10:08:06;95011.84;;;27.43;33.21
6136;BME280;24008;42.664;23.372;2023-05-19T10:10:35;94963.75;;;27.21;33.52
6136;BME280;24008;42.664;23.372;2023-05-19T10:13:04;95006.00;;;27.53;33.55
6136;BME280;24008;42.664;23.372;2023-05-19T10:15:31;95009.97;;;27.72;33.68
6136;BME280;24008;42.664;23.372;2023-05-19T10:17:58;94979.41;;;27.66;33.82
6136;BME280;24008;42.664;23.372;2023-05-19T10:20:26;94990.63;;;28.17;33.99
6136;BME280;24008;42.664;23.372;2023-05-19T10:22:53;94960.84;;;27.89;32.97
6136;BME280;24008;42.664;23.372;2023-05-19T10:25:20;94959.53;;;27.70;33.23
6136;BME280;24008;42.664;23.372;2023-05-19T10:27:50;94988.41;;;27.87;33.33
6136;BME280;24008;42.664;23.372;2023-05-19T10:30:24;94997.41;;;27.57;33.72
6136;BME280;24008;42.664;23.372;2023-05-19T10:32:52;94991.94;;;26.97;34.47
6136;BME280;24008;42.664;23.372;2023-05-19T10:35:41;94986.41;;;27.10;34.03
6136;BME280;24008;42.664;23.372;2023-05-19T10:38:23;94991.97;;;27.31;33.30
6136;BME280;24008;42.664;23.372;2023-05-19T10:40:58;94947.44;;;27.19;33.35
6136;BME280;24008;42.664;23.372;2023-05-19T10:43:38;94977.66;;;27.38;33.27
6136;BME280;24008;42.664;23.372;2023-05-19T10:46:11;94979.66;;;27.48;32.01
6136;BME280;24008;42.664;23.372;2023-05-19T10:48:43;94981.09;;;27.39;33.92
6136;BME280;24008;42.664;23.372;2023-05-19T10:51:10;94986.13;;;26.95;33.15
6136;BME280;24008;42.664;23.372;2023-05-19T10:53:40;94976.38;;;26.50;32.67
6136;BME280;24008;42.664;23.372;2023-05-19T10:56:11;94895.00;;;25.42;35.05
6136;BME280;24008;42.664;23.372;2023-05-19T10:58:53;94975.41;;;25.11;35.96
6136;BME280;24008;42.664;23.372;2023-05-19T11:01:28;94954.03;;;24.73;37.20
6136;BME280;24008;42.664;23.372;2023-05-19T11:03:56;94948.53;;;24.63;36.37
6136;BME280;24008;42.664;23.372;2023-05-19T11:06:27;94943.50;;;24.13;37.40
6136;BME280;24008;42.664;23.372;2023-05-19T11:08:58;94893.63;;;23.66;38.32
6136;BME280;24008;42.664;23.372;2023-05-19T11:11:41;94937.34;;;24.08;39.38
6136;BME280;24008;42.664;23.372;2023-05-19T11:14:10;94949.44;;;23.84;38.96
6136;BME280;24008;42.664;23.372;2023-05-19T11:16:39;94971.75;;;23.61;39.27
6136;BME280;24008;42.664;23.372;2023-05-19T11:19:07;94946.69;;;23.35;39.70
6136;BME280;24008;42.664;23.372;2023-05-19T11:21:42;94888.72;;;23.09;39.61
6136;BME280;24008;42.664;23.372;2023-05-19T11:24:35;94959.88;;;23.65;39.27
6136;BME280;24008;42.664;23.372;2023-05-19T11:27:23;94955.16;;;23.56;40.42
6136;BME280;24008;42.664;23.372;2023-05-19T11:29:52;94958.81;;;23.48;41.06
6136;BME280;24008;42.664;23.372;2023-05-19T11:32:22;94905.03;;;22.79;41.39
6136;BME280;24008;42.664;23.372;2023-05-19T11:34:51;94919.75;;;22.22;42.51
6136;BME280;24008;42.664;23.372;2023-05-19T11:37:19;94927.53;;;21.71;44.14
6136;BME280;24008;42.664;23.372;2023-05-19T11:39:46;94990.34;;;20.96;49.04
6136;BME280;24008;42.664;23.372;2023-05-19T11:42:13;94985.34;;;19.02;59.18
6136;BME280;24008;42.664;23.372;2023-05-19T11:44:40;95018.06;;;17.72;71.66
6136;BME280;24008;42.664;23.372;2023-05-19T11:47:07;94991.03;;;16.54;80.47
6136;BME280;24008;42.664;23.372;2023-05-19T11:49:35;94999.63;;;16.07;83.70
6136;BME280;24008;42.664;23.372;2023-05-19T11:52:03;94950.38;;;15.39;80.35
6136;BME280;24008;42.664;23.372;2023-05-19T11:54:31;94933.03;;;15.33;84.69
6136;BME280;24008;42.664;23.372;2023-05-19T11:57:00;94999.31;;;15.63;88.12
6136;BME280;24008;42.664;23.372;2023-05-19T11:59:31;95029.75;;;15.68;89.04
6136;BME280;24008;42.664;23.372;2023-05-19T12:02:03;94867.81;;;14.61;82.99
6136;BME280;24008;42.664;23.372;2023-05-19T12:04:41;94969.88;;;14.52;80.37
6136;BME280;24008;42.664;23.372;2023-05-19T12:07:09;94986.28;;;14.01;85.26
6136;BME280;24008;42.664;23.372;2023-05-19T12:09:36;95050.53;;;14.35;86.16
6136;BME280;24008;42.664;23.372;2023-05-19T12:12:03;95054.91;;;14.09;84.75
6136;BME280;24008;42.664;23.372;2023-05-19T12:14:30;95060.19;;;13.99;85.80
6136;BME280;24008;42.664;23.372;2023-05-19T12:16:57;95067.09;;;14.06;84.83
6136;BME280;24008;42.664;23.372;2023-05-19T12:19:24;95047.44;;;14.23;80.60
6136;BME280;24008;42.664;23.372;2023-05-19T12:21:56;95053.91;;;14.35;80.37
6136;BME280;24008;42.664;23.372;2023-05-19T12:24:25;95047.84;;;14.45;81.99
6136;BME280;24008;42.664;23.372;2023-05-19T12:27:03;95045.00;;;14.64;81.19
6136;BME280;24008;42.664;23.372;2023-05-19T12:29:31;95046.19;;;14.94;83.57
6136;BME280;24008;42.664;23.372;2023-05-19T12:31:59;95036.03;;;15.17;84.52
6136;BME280;24008;42.664;23.372;2023-05-19T12:34:27;95016.72;;;15.29;82.87
6136;BME280;24008;42.664;23.372;2023-05-19T12:36:56;95041.19;;;15.65;83.41
6136;BME280;24008;42.664;23.372;2023-05-19T12:39:23;95026.31;;;15.92;82.28
6136;BME280;24008;42.664;23.372;2023-05-19T12:41:50;95033.47;;;16.12;83.25
6136;BME280;24008;42.664;23.372;2023-05-19T12:44:17;95022.28;;;16.28;80.30
6136;BME280;24008;42.664;23.372;2023-05-19T12:46:44;95016.72;;;16.47;79.43
6136;BME280;24008;42.664;23.372;2023-05-19T12:49:12;94955.72;;;16.24;79.38
6136;BME280;24008;42.664;23.372;2023-05-19T12:51:39;95007.88;;;16.73;77.34
6136;BME280;24008;42.664;23.372;2023-05-19T12:54:08;95004.97;;;16.76;77.31
6136;BME280;24008;42.664;23.372;2023-05-19T12:56:34;95000.47;;;16.70;73.24
6136;BME280;24008;42.664;23.372;2023-05-19T12:59:01;94933.31;;;16.24;72.06
6136;BME280;24008;42.664;23.372;2023-05-19T13:01:28;94826.06;;;15.53;72.33
6136;BME280;24008;42.664;23.372;2023-05-19T13:04:00;94997.38;;;16.74;71.75
6136;BME280;24008;42.664;23.372;2023-05-19T13:06:27;94979.81;;;16.92;69.90
6136;BME280;24008;42.664;23.372;2023-05-19T13:08:55;94969.69;;;17.06;69.42